CHICAGO O'HARE INTL

KORD (ORD)
Chicago, Illinois
Towered

Vatsim Metar:
KORD 131951Z 25017G24KT 10SM SCT047 12/M01 A3009 RMK AO2 PK WND 24027/1911 SLP190 T01171011